Time;durP1;ratioP1;P1;durP2;ratioP2;P2;SDS_P1;SDS_P2;PMS_P1;PMS_P2;Temp;Humidity;BMP_temperature;BMP_pressure;BME280_temperature;BME280_humidity;BME280_pressure;Samples;Min_cycle;Max_cycle;Signal;HPM_P1;HPM_P2
2021/05/11 00:03:07;;;;;;;7.10;2.67;;;;;;;;;;10256661;28;20049;-67
2021/05/11 00:08:03;;;;;;;8.70;3.80;;;;;;;;;;10246442;28;20403;-66
2021/05/11 00:12:59;;;;;;;7.25;2.63;;;;;;;;;;10254419;28;20045;-67
2021/05/11 00:17:55;;;;;;;10.48;3.10;;;;;;;;;;10268079;28;21229;-66
2021/05/11 00:22:51;;;;;;;5.95;2.70;;;;;;;;;;10258966;28;20053;-67
2021/05/11 00:27:47;;;;;;;8.82;2.35;;;;;;;;;;10266277;28;20094;-67
2021/05/11 00:32:43;;;;;;;9.40;2.92;;;;;;;;;;10258300;28;20080;-69
2021/05/11 00:37:38;;;;;;;7.00;2.85;;;;;;;;;;10262526;28;20055;-69
2021/05/11 00:42:35;;;;;;;6.63;3.17;;;;;;;;;;10260493;28;20049;-69
2021/05/11 00:47:31;;;;;;;5.40;2.15;;;;;;;;;;10258183;28;20518;-69
2021/05/11 00:52:28;;;;;;;9.95;2.88;;;;;;;;;;10265884;28;20413;-68
2021/05/11 00:57:24;;;;;;;7.97;3.38;;;;;;;;;;10255968;28;20449;-68
2021/05/11 01:02:20;;;;;;;9.95;3.25;;;;;;;;;;10257145;28;20041;-68
2021/05/11 01:07:16;;;;;;;6.10;2.78;;;;;;;;;;10260438;28;20045;-67
2021/05/11 01:12:12;;;;;;;5.97;2.53;;;;;;;;;;10262830;28;20037;-69
2021/05/11 01:17:15;;;;;;;8.52;3.63;;;;;;;;;;10253066;28;20453;-68
2021/05/11 01:53:03;;;;;;;6.40;2.33;;;;;;;;;;10256749;28;20131;-66
2021/05/11 02:24:12;;;;;;;8.50;4.30;;;;;;;;;;10250573;28;20038;-66
2021/05/11 02:29:08;;;;;;;8.20;3.60;;;;;;;;;;10263310;28;20048;-67
2021/05/11 02:34:04;;;;;;;6.63;4.10;;;;;;;;;;10269749;28;20674;-66
2021/05/11 02:38:59;;;;;;;11.43;4.57;;;;;;;;;;10259623;28;20053;-65
2021/05/11 02:43:57;;;;;;;10.07;3.95;;;;;;;;;;10266227;28;20605;-69
2021/05/11 02:48:54;;;;;;;8.52;3.60;;;;;;;;;;10259992;28;20095;-69
2021/05/11 02:53:50;;;;;;;7.72;3.67;;;;;;;;;;10268395;28;20044;-67
2021/05/11 02:58:49;;;;;;;7.45;3.72;;;;;;;;;;10269721;28;20556;-68
2021/05/11 03:03:45;;;;;;;7.70;3.70;;;;;;;;;;10260862;28;20522;-65
2021/05/11 03:08:43;;;;;;;7.93;2.78;;;;;;;;;;10269311;28;20041;-66
2021/05/11 03:13:39;;;;;;;7.15;2.20;;;;;;;;;;10262145;28;20044;-66
2021/05/11 03:18:35;;;;;;;5.78;2.75;;;;;;;;;;10263637;28;20068;-67
2021/05/11 03:23:31;;;;;;;5.93;2.65;;;;;;;;;;10261174;28;20107;-67
2021/05/11 03:28:27;;;;;;;9.07;3.15;;;;;;;;;;10257918;28;20110;-68
2021/05/11 03:33:23;;;;;;;7.88;3.15;;;;;;;;;;10260781;28;20090;-68
2021/05/11 03:38:18;;;;;;;7.13;2.40;;;;;;;;;;10264940;28;20510;-68
2021/05/11 03:43:19;;;;;;;8.38;1.85;;;;;;;;;;10268022;28;20037;-68
2021/05/11 03:48:14;;;;;;;9.43;1.58;;;;;;;;;;10258315;28;20029;-67
2021/05/11 03:53:10;;;;;;;6.00;1.27;;;;;;;;;;10262232;28;20059;-68
2021/05/11 03:58:07;;;;;;;6.07;1.10;;;;;;;;;;10264360;28;20049;-68
2021/05/11 04:03:03;;;;;;;7.60;1.25;;;;;;;;;;10260330;28;20046;-66
2021/05/11 04:08:01;;;;;;;9.43;1.55;;;;;;;;;;10256419;28;20048;-67
2021/05/11 04:18:12;;;;;;;6.72;1.30;;;;;;;;;;10265559;28;20044;-66
2021/05/11 04:23:08;;;;;;;8.52;1.90;;;;;;;;;;10258352;28;20045;-66
2021/05/11 04:28:05;;;;;;;5.57;1.33;;;;;;;;;;10259033;28;20193;-67
2021/05/11 04:33:01;;;;;;;6.05;1.17;;;;;;;;;;10254092;28;20049;-68
2021/05/11 04:37:58;;;;;;;7.95;1.77;;;;;;;;;;10258354;28;20060;-67
2021/05/11 04:42:54;;;;;;;5.78;1.50;;;;;;;;;;10254979;28;20453;-68
2021/05/11 04:47:51;;;;;;;6.00;1.55;;;;;;;;;;10244379;28;20072;-68
2021/05/11 04:52:48;;;;;;;8.70;1.63;;;;;;;;;;10261098;28;20068;-68
2021/05/11 04:57:45;;;;;;;8.90;2.03;;;;;;;;;;10254112;28;20681;-68
2021/05/11 05:02:44;;;;;;;7.25;2.00;;;;;;;;;;10257834;28;20086;-67
2021/05/11 05:07:41;;;;;;;6.70;2.00;;;;;;;;;;10254327;28;20048;-67
2021/05/11 05:12:37;;;;;;;9.98;2.35;;;;;;;;;;10257427;28;20136;-68
2021/05/11 05:17:34;;;;;;;8.45;2.55;;;;;;;;;;10246953;28;20041;-68
2021/05/11 05:22:32;;;;;;;7.60;1.70;;;;;;;;;;10248989;28;20095;-68
2021/05/11 05:32:57;;;;;;;6.00;1.83;;;;;;;;;;10235426;28;20064;-68
2021/05/11 05:37:53;;;;;;;6.63;1.88;;;;;;;;;;10255310;28;20095;-68
2021/05/11 05:42:50;;;;;;;7.03;2.20;;;;;;;;;;10252232;28;20055;-68
2021/05/11 05:47:50;;;;;;;6.30;2.15;;;;;;;;;;10245231;28;20103;-68
2021/05/11 05:52:51;;;;;;;5.78;2.38;;;;;;;;;;10244393;28;20114;-68
2021/05/11 05:57:48;;;;;;;6.38;1.92;;;;;;;;;;10254044;28;20052;-68
2021/05/11 06:02:46;;;;;;;6.13;2.17;;;;;;;;;;10254525;28;20458;-68
2021/05/11 06:07:43;;;;;;;8.20;2.55;;;;;;;;;;10257782;28;20045;-69
2021/05/11 06:13:00;;;;;;;8.40;2.40;;;;;;;;;;10257045;28;20045;-68
2021/05/11 06:17:57;;;;;;;8.20;2.60;;;;;;;;;;10259439;28;20064;-67
2021/05/11 06:22:53;;;;;;;8.18;2.45;;;;;;;;;;10252077;28;20079;-67
2021/05/11 06:27:56;;;;;;;9.52;2.75;;;;;;;;;;10277119;28;20044;-67
2021/05/11 06:32:54;;;;;;;8.80;2.35;;;;;;;;;;10260677;28;20041;-67
2021/05/11 06:37:57;;;;;;;5.10;2.15;;;;;;;;;;10258735;28;20045;-67
2021/05/11 06:42:54;;;;;;;12.25;2.83;;;;;;;;;;10264021;28;20044;-67
2021/05/11 06:48:16;;;;;;;8.07;2.58;;;;;;;;;;10260483;28;20045;-68
2021/05/11 06:53:12;;;;;;;9.82;2.17;;;;;;;;;;10259866;28;20041;-71
2021/05/11 06:58:09;;;;;;;10.73;3.33;;;;;;;;;;10266550;28;20090;-68
2021/05/11 07:03:06;;;;;;;6.70;2.00;;;;;;;;;;10257327;28;20048;-68
2021/05/11 07:13:10;;;;;;;8.98;2.38;;;;;;;;;;10256947;28;20067;-67
2021/05/11 07:18:08;;;;;;;9.63;2.53;;;;;;;;;;10246904;28;20050;-68
2021/05/11 07:23:05;;;;;;;4.68;1.92;;;;;;;;;;10258203;28;20529;-67
2021/05/11 07:28:22;;;;;;;8.18;2.47;;;;;;;;;;10259886;28;20118;-67
2021/05/11 07:33:18;;;;;;;7.93;2.42;;;;;;;;;;10251831;28;20099;-67
2021/05/11 07:38:14;;;;;;;7.35;2.05;;;;;;;;;;10255690;28;20041;-67
2021/05/11 07:43:12;;;;;;;8.82;2.25;;;;;;;;;;10263096;28;20068;-70
2021/05/11 08:29:56;;;;;;;5.95;2.05;;;;;;;;;;10250672;28;20042;-67
2021/05/11 08:34:52;;;;;;;8.85;1.70;;;;;;;;;;10252038;28;20045;-67
2021/05/11 08:39:49;;;;;;;6.88;1.55;;;;;;;;;;10252290;28;20106;-67
2021/05/11 08:44:45;;;;;;;9.30;1.60;;;;;;;;;;10248952;28;20498;-67
2021/05/11 08:49:43;;;;;;;7.00;1.73;;;;;;;;;;10252605;28;20102;-67
2021/05/11 09:04:36;;;;;;;7.45;1.35;;;;;;;;;;10247032;28;20041;-67
2021/05/11 09:14:18;;;;;;;7.40;1.52;;;;;;;;;;10224329;28;20068;-66
2021/05/11 10:41:20;;;;;;;9.07;1.92;;;;;;;;;;10262586;28;20189;-67
2021/05/11 10:51:28;;;;;;;6.50;1.15;;;;;;;;;;10257806;28;20522;-67
2021/05/11 10:56:27;;;;;;;5.05;1.20;;;;;;;;;;10261497;28;20049;-67
2021/05/11 11:01:33;;;;;;;5.65;2.40;;;;;;;;;;10259008;28;20056;-68
2021/05/11 11:06:49;;;;;;;4.00;1.10;;;;;;;;;;10252398;28;20088;-68
2021/05/11 11:11:46;;;;;;;7.07;1.33;;;;;;;;;;10250987;28;20124;-68
2021/05/11 11:16:43;;;;;;;4.10;1.10;;;;;;;;;;10252212;28;20052;-68
2021/05/11 11:26:51;;;;;;;4.68;0.80;;;;;;;;;;10260858;28;20457;-68
2021/05/11 11:31:48;;;;;;;6.88;1.15;;;;;;;;;;10260102;28;20049;-67
2021/05/11 11:37:07;;;;;;;4.10;0.88;;;;;;;;;;10256801;28;20051;-68
2021/05/11 11:42:05;;;;;;;7.20;1.42;;;;;;;;;;10259173;28;20118;-68
2021/05/11 11:47:08;;;;;;;7.00;1.23;;;;;;;;;;10253607;28;20115;-67
2021/05/11 11:52:09;;;;;;;2.97;0.95;;;;;;;;;;10251736;28;20069;-68
2021/05/11 12:02:32;;;;;;;5.22;1.10;;;;;;;;;;10255043;28;20106;-69
2021/05/11 12:07:32;;;;;;;5.10;0.70;;;;;;;;;;10257438;28;20045;-69
2021/05/11 12:12:29;;;;;;;4.25;0.77;;;;;;;;;;10253941;28;20502;-69
2021/05/11 12:17:35;;;;;;;5.72;1.25;;;;;;;;;;10253671;28;20041;-69
2021/05/11 12:22:32;;;;;;;5.63;1.40;;;;;;;;;;10251808;28;20040;-69
2021/05/11 12:27:37;;;;;;;4.78;1.23;;;;;;;;;;10252515;28;20040;-70
2021/05/11 12:32:34;;;;;;;7.78;0.85;;;;;;;;;;10252839;28;20068;-70
2021/05/11 12:37:56;;;;;;;3.75;0.93;;;;;;;;;;10249880;28;20526;-69
2021/05/11 12:42:55;;;;;;;4.05;0.90;;;;;;;;;;10258860;28;20076;-70
2021/05/11 12:47:53;;;;;;;4.50;0.95;;;;;;;;;;10250915;28;20045;-69
2021/05/11 12:52:52;;;;;;;5.95;1.73;;;;;;;;;;10248537;28;20045;-69
2021/05/11 12:57:56;;;;;;;3.85;0.80;;;;;;;;;;10250987;28;20110;-70
2021/05/11 13:03:20;;;;;;;4.13;0.82;;;;;;;;;;10255229;28;20041;-70
2021/05/11 13:34:38;;;;;;;8.77;1.27;;;;;;;;;;10247706;28;20041;-70
2021/05/11 13:39:35;;;;;;;3.70;1.08;;;;;;;;;;10250845;28;20388;-70
2021/05/11 13:44:31;;;;;;;3.65;1.00;;;;;;;;;;10252925;28;20474;-70
2021/05/11 13:49:29;;;;;;;6.18;1.00;;;;;;;;;;10256690;28;20037;-70
2021/05/11 13:54:26;;;;;;;7.88;1.63;;;;;;;;;;10258447;28;20077;-69
2021/05/11 14:04:38;;;;;;;4.80;1.50;;;;;;;;;;10251192;28;20054;-68
2021/05/11 14:09:34;;;;;;;7.93;1.63;;;;;;;;;;10252917;28;20057;-69
2021/05/11 14:14:30;;;;;;;4.95;1.17;;;;;;;;;;10257469;28;20461;-68
2021/05/11 14:19:30;;;;;;;6.40;0.98;;;;;;;;;;10257852;28;20049;-68
2021/05/11 14:24:27;;;;;;;6.88;1.77;;;;;;;;;;10251969;28;20049;-68
2021/05/11 14:29:24;;;;;;;10.43;1.60;;;;;;;;;;10258701;28;20087;-68
2021/05/11 14:34:21;;;;;;;6.32;1.60;;;;;;;;;;10261904;28;20040;-67
2021/05/11 14:39:18;;;;;;;5.47;1.33;;;;;;;;;;10263256;28;20120;-68
2021/05/11 14:44:14;;;;;;;5.05;1.40;;;;;;;;;;10254836;28;20132;-68
2021/05/11 14:49:11;;;;;;;7.53;1.30;;;;;;;;;;10259500;28;20046;-68
2021/05/11 14:54:09;;;;;;;6.43;1.50;;;;;;;;;;10257616;28;20137;-68
2021/05/11 14:59:09;;;;;;;5.13;1.50;;;;;;;;;;10258109;28;20037;-68
2021/05/11 15:04:07;;;;;;;5.75;1.10;;;;;;;;;;10258253;28;20067;-68
2021/05/11 15:09:06;;;;;;;7.05;2.10;;;;;;;;;;10255524;28;20040;-68
2021/05/11 15:14:03;;;;;;;9.80;2.00;;;;;;;;;;10260106;28;20033;-68
2021/05/11 15:18:59;;;;;;;6.18;1.48;;;;;;;;;;10254792;28;20080;-67
2021/05/11 15:23:55;;;;;;;5.78;1.40;;;;;;;;;;10250135;28;20102;-68
2021/05/11 15:28:52;;;;;;;5.47;1.42;;;;;;;;;;10251445;28;20106;-68
2021/05/11 15:33:48;;;;;;;6.45;2.05;;;;;;;;;;10255353;28;20071;-67
2021/05/11 15:38:45;;;;;;;5.38;1.20;;;;;;;;;;10259036;28;20067;-68
2021/05/11 15:43:41;;;;;;;5.50;2.67;;;;;;;;;;10251992;28;20423;-67
2021/05/11 15:48:38;;;;;;;3.88;1.48;;;;;;;;;;10265480;28;20110;-69
2021/05/11 15:53:34;;;;;;;5.35;2.50;;;;;;;;;;10254976;28;20574;-68
2021/05/11 15:58:31;;;;;;;7.13;1.50;;;;;;;;;;10250802;28;20052;-68
2021/05/11 16:03:27;;;;;;;4.65;1.25;;;;;;;;;;10256433;28;20536;-68
2021/05/11 16:08:26;;;;;;;4.97;1.05;;;;;;;;;;10258610;28;20380;-68
2021/05/11 16:13:24;;;;;;;6.10;1.38;;;;;;;;;;10249081;28;20087;-69
2021/05/11 16:18:20;;;;;;;6.05;1.40;;;;;;;;;;10261537;28;20579;-68
2021/05/11 16:23:17;;;;;;;4.88;1.20;;;;;;;;;;10254699;28;20045;-66
2021/05/11 16:28:13;;;;;;;5.13;1.30;;;;;;;;;;10246232;28;20056;-68
2021/05/11 16:33:11;;;;;;;4.60;1.20;;;;;;;;;;10245873;28;20118;-69
2021/05/11 16:38:08;;;;;;;4.93;1.60;;;;;;;;;;10245525;28;20494;-68
2021/05/11 16:43:04;;;;;;;4.32;1.50;;;;;;;;;;10246241;28;20466;-68
2021/05/11 16:48:01;;;;;;;5.32;1.45;;;;;;;;;;10251573;28;20746;-68
2021/05/11 16:52:59;;;;;;;5.25;1.42;;;;;;;;;;10252769;28;20583;-69
2021/05/11 16:57:57;;;;;;;7.05;2.10;;;;;;;;;;10246991;28;20103;-68
2021/05/11 17:02:53;;;;;;;5.82;1.60;;;;;;;;;;10247314;28;20041;-69
2021/05/11 17:07:51;;;;;;;7.10;1.30;;;;;;;;;;10242036;28;20073;-68
2021/05/11 17:12:48;;;;;;;8.30;2.38;;;;;;;;;;10255431;28;20048;-68
2021/05/11 17:17:46;;;;;;;4.70;1.67;;;;;;;;;;10258880;28;20132;-68
2021/05/11 17:22:43;;;;;;;5.93;1.30;;;;;;;;;;10256243;28;20118;-68
2021/05/11 17:27:40;;;;;;;7.35;2.13;;;;;;;;;;10255386;28;20095;-68
2021/05/11 17:32:37;;;;;;;5.05;1.15;;;;;;;;;;10261153;28;20037;-68
2021/05/11 17:37:34;;;;;;;4.95;1.02;;;;;;;;;;10257219;28;20402;-67
2021/05/11 17:42:30;;;;;;;4.10;1.10;;;;;;;;;;10257967;28;20056;-67
2021/05/11 17:47:27;;;;;;;5.28;1.35;;;;;;;;;;10247156;28;20087;-68
2021/05/11 17:52:23;;;;;;;3.95;1.55;;;;;;;;;;10250543;28;20041;-68
2021/05/11 17:57:20;;;;;;;6.85;1.27;;;;;;;;;;10252928;28;20127;-68
2021/05/11 18:02:16;;;;;;;5.07;1.25;;;;;;;;;;10261784;28;20041;-68
2021/05/11 18:07:12;;;;;;;4.97;1.50;;;;;;;;;;10260036;28;20166;-67
2021/05/11 18:12:09;;;;;;;7.78;2.08;;;;;;;;;;10251765;28;20044;-67
2021/05/11 18:17:06;;;;;;;7.70;1.70;;;;;;;;;;10252925;28;21788;-68
2021/05/11 18:22:02;;;;;;;7.75;2.10;;;;;;;;;;10265549;28;20037;-68
2021/05/11 18:26:59;;;;;;;5.10;2.30;;;;;;;;;;10257785;28;20041;-68
2021/05/11 18:31:56;;;;;;;7.18;1.48;;;;;;;;;;10256516;28;20044;-68
2021/05/11 18:41:48;;;;;;;7.38;1.85;;;;;;;;;;10262296;28;20083;-68
2021/05/11 18:46:47;;;;;;;7.47;2.05;;;;;;;;;;10257381;28;20033;-69
2021/05/11 18:51:44;;;;;;;4.90;1.42;;;;;;;;;;10247542;28;20522;-69
2021/05/11 18:56:40;;;;;;;5.35;2.03;;;;;;;;;;10258621;28;20049;-69
2021/05/11 19:01:39;;;;;;;5.03;1.63;;;;;;;;;;10266779;28;20049;-69
2021/05/11 19:06:36;;;;;;;8.13;1.80;;;;;;;;;;10256250;28;20063;-69
2021/05/11 19:11:34;;;;;;;6.55;1.30;;;;;;;;;;10248426;28;20098;-68
2021/05/11 19:16:30;;;;;;;4.35;1.40;;;;;;;;;;10258005;28;20045;-69
2021/05/11 19:21:27;;;;;;;4.55;1.30;;;;;;;;;;10258081;28;20714;-68
2021/05/11 19:26:23;;;;;;;6.15;1.23;;;;;;;;;;10259567;28;20130;-68
2021/05/11 19:31:19;;;;;;;3.25;1.13;;;;;;;;;;10258574;28;20069;-68
2021/05/11 19:36:18;;;;;;;3.13;0.90;;;;;;;;;;10255254;28;20132;-70
2021/05/11 19:41:15;;;;;;;3.28;1.20;;;;;;;;;;10253610;28;20102;-72
2021/05/11 19:46:11;;;;;;;10.45;2.08;;;;;;;;;;10260987;28;20038;-71
2021/05/11 19:51:08;;;;;;;4.57;1.08;;;;;;;;;;10254553;28;20471;-70
2021/05/11 19:56:04;;;;;;;2.72;0.85;;;;;;;;;;10247675;28;20041;-67
2021/05/11 20:01:00;;;;;;;6.72;1.10;;;;;;;;;;10259009;28;20106;-70
2021/05/11 20:05:57;;;;;;;6.82;1.30;;;;;;;;;;10243301;28;20114;-66
2021/05/11 20:10:54;;;;;;;8.10;1.20;;;;;;;;;;10256009;28;20114;-66
2021/05/11 20:15:51;;;;;;;4.72;1.00;;;;;;;;;;10254623;28;20075;-67
2021/05/11 20:20:47;;;;;;;6.32;1.70;;;;;;;;;;10255515;28;20548;-68
2021/05/11 20:25:44;;;;;;;4.70;1.10;;;;;;;;;;10259921;28;20106;-68
2021/05/11 20:30:44;;;;;;;4.05;1.20;;;;;;;;;;10258475;28;20503;-68
2021/05/11 20:35:44;;;;;;;6.68;1.25;;;;;;;;;;10260956;28;20565;-67
2021/05/11 20:40:40;;;;;;;5.10;1.40;;;;;;;;;;10254712;28;20558;-67
2021/05/11 20:45:37;;;;;;;7.22;1.70;;;;;;;;;;10263796;28;20076;-67
2021/05/11 20:50:34;;;;;;;7.18;1.58;;;;;;;;;;10254953;28;20099;-67
2021/05/11 20:55:32;;;;;;;9.80;1.95;;;;;;;;;;10264400;28;20103;-67
2021/05/11 21:00:28;;;;;;;5.78;1.48;;;;;;;;;;10256673;28;20458;-64
2021/05/11 21:05:30;;;;;;;4.40;1.50;;;;;;;;;;10242188;28;20068;-67
2021/05/11 21:10:27;;;;;;;6.03;1.20;;;;;;;;;;10254533;28;20119;-66
2021/05/11 21:15:24;;;;;;;9.00;1.85;;;;;;;;;;10265450;28;20061;-66
2021/05/11 21:20:21;;;;;;;5.93;2.10;;;;;;;;;;10254380;28;20072;-66
2021/05/11 21:25:18;;;;;;;9.05;1.90;;;;;;;;;;10256203;28;20045;-66
2021/05/11 21:30:16;;;;;;;5.90;1.70;;;;;;;;;;10257307;28;20041;-65
2021/05/11 21:35:13;;;;;;;6.55;2.00;;;;;;;;;;10269822;28;20061;-66
2021/05/11 21:40:11;;;;;;;11.88;2.90;;;;;;;;;;10262000;28;20052;-66
2021/05/11 21:45:08;;;;;;;12.00;5.55;;;;;;;;;;10265517;28;20053;-67
2021/05/11 21:50:08;;;;;;;12.27;4.90;;;;;;;;;;10271813;28;20575;-68
2021/05/11 21:55:05;;;;;;;7.60;4.28;;;;;;;;;;10269990;28;20098;-66
2021/05/11 22:00:06;;;;;;;9.88;3.40;;;;;;;;;;10268858;28;20060;-68
2021/05/11 22:05:03;;;;;;;10.52;4.03;;;;;;;;;;10257394;28;20053;-68
2021/05/11 22:09:59;;;;;;;7.78;3.35;;;;;;;;;;10270027;28;20114;-68
2021/05/11 22:14:56;;;;;;;8.95;3.92;;;;;;;;;;10265875;28;20052;-67
2021/05/11 22:19:52;;;;;;;10.02;4.32;;;;;;;;;;10267176;28;20049;-67
2021/05/11 22:24:49;;;;;;;12.88;5.80;;;;;;;;;;10247953;28;20057;-66
2021/05/11 22:29:45;;;;;;;7.57;4.40;;;;;;;;;;10267452;28;20033;-67
2021/05/11 22:34:41;;;;;;;9.77;4.35;;;;;;;;;;10270032;28;20063;-68
2021/05/11 22:39:38;;;;;;;9.25;4.00;;;;;;;;;;10265274;28;20047;-65
2021/05/11 22:44:35;;;;;;;8.20;4.78;;;;;;;;;;10262513;28;20048;-67
2021/05/11 22:49:31;;;;;;;10.38;5.03;;;;;;;;;;10268504;28;20087;-67
2021/05/11 22:54:27;;;;;;;13.10;5.97;;;;;;;;;;10265301;28;20079;-66
2021/05/11 22:59:25;;;;;;;10.85;6.35;;;;;;;;;;10258798;28;20132;-66
2021/05/11 23:04:21;;;;;;;11.55;6.82;;;;;;;;;;10266606;28;20045;-69
2021/05/11 23:09:17;;;;;;;12.45;7.00;;;;;;;;;;10264735;28;20489;-67
2021/05/11 23:14:14;;;;;;;15.38;8.18;;;;;;;;;;10258933;28;20461;-66
2021/05/11 23:19:14;;;;;;;17.05;8.43;;;;;;;;;;10255621;28;20040;-68
2021/05/11 23:24:10;;;;;;;14.70;8.30;;;;;;;;;;10263950;28;20038;-68
2021/05/11 23:29:06;;;;;;;14.20;8.70;;;;;;;;;;10258866;28;20045;-68
2021/05/11 23:34:03;;;;;;;13.45;7.57;;;;;;;;;;10252780;28;20075;-68
2021/05/11 23:38:59;;;;;;;17.58;8.95;;;;;;;;;;10278565;28;20091;-68
2021/05/11 23:43:55;;;;;;;13.98;8.75;;;;;;;;;;10255509;28;20033;-67
2021/05/11 23:48:52;;;;;;;14.57;8.48;;;;;;;;;;10262907;28;20037;-66
2021/05/11 23:53:48;;;;;;;12.20;8.15;;;;;;;;;;10266675;28;20095;-67
2021/05/11 23:58:44;;;;;;;13.00;7.55;;;;;;;;;;10262277;28;20037;-66
